createdAt,value
2023-03-12T00:00:19.031Z,18.92
2023-03-12T00:00:50.448Z,18.89
2023-03-12T00:01:22.101Z,18.88
2023-03-12T00:01:53.551Z,18.87
2023-03-12T00:02:25.010Z,18.87
2023-03-12T00:02:56.576Z,18.88
2023-03-12T00:03:28.202Z,18.87
2023-03-12T00:03:59.718Z,18.86
2023-03-12T00:04:31.178Z,18.87
2023-03-12T00:05:02.568Z,18.86
2023-03-12T00:05:33.960Z,18.86
2023-03-12T00:06:10.567Z,18.86
2023-03-12T00:06:42.316Z,18.87
2023-03-12T00:07:13.707Z,18.86
2023-03-12T00:07:45.094Z,18.85
2023-03-12T00:08:16.501Z,18.84
2023-03-12T00:08:47.944Z,18.82
2023-03-12T00:09:19.344Z,18.79
2023-03-12T00:09:50.798Z,18.79
2023-03-12T00:10:22.189Z,18.79
2023-03-12T00:10:53.588Z,18.79
2023-03-12T00:11:24.978Z,18.79
2023-03-12T00:11:56.370Z,18.78
2023-03-12T00:12:27.787Z,18.75
2023-03-12T00:12:59.209Z,18.77
2023-03-12T00:13:30.618Z,18.77
2023-03-12T00:14:02.936Z,18.77
2023-03-12T00:14:34.358Z,18.78
2023-03-12T00:15:05.772Z,18.75
2023-03-12T00:15:37.223Z,18.74
2023-03-12T00:16:08.715Z,18.75
2023-03-12T00:16:40.168Z,18.76
2023-03-12T00:17:11.597Z,18.75
2023-03-12T00:17:42.996Z,18.73
2023-03-12T00:18:14.394Z,18.70
2023-03-12T00:18:45.782Z,18.69
2023-03-12T00:19:17.186Z,18.68
2023-03-12T00:19:48.592Z,18.68
2023-03-12T00:20:20.055Z,18.67
2023-03-12T00:20:51.469Z,18.70
2023-03-12T00:21:22.856Z,18.70
2023-03-12T00:21:54.250Z,18.70
2023-03-12T00:22:25.670Z,18.69
2023-03-12T00:22:57.114Z,18.67
2023-03-12T00:23:28.533Z,18.67
2023-03-12T00:23:59.930Z,18.66
2023-03-12T00:24:31.338Z,18.68
2023-03-12T00:25:02.733Z,18.67
2023-03-12T00:25:34.170Z,18.66
2023-03-12T00:26:05.591Z,18.66
2023-03-12T00:26:36.990Z,18.65
2023-03-12T00:27:08.397Z,18.65
2023-03-12T00:27:39.827Z,18.64
2023-03-12T00:28:11.255Z,18.65
2023-03-12T00:28:42.671Z,18.64
2023-03-12T00:29:14.067Z,18.63
2023-03-12T00:29:45.463Z,18.62
2023-03-12T00:30:16.874Z,18.62
2023-03-12T00:30:48.334Z,18.62
2023-03-12T00:31:19.733Z,18.60
2023-03-12T00:31:51.214Z,18.62
2023-03-12T00:32:22.688Z,18.60
2023-03-12T00:32:54.191Z,18.60
2023-03-12T00:33:25.631Z,18.58
2023-03-12T00:33:57.041Z,18.60
2023-03-12T00:34:28.434Z,18.59
2023-03-12T00:34:59.844Z,18.57
2023-03-12T00:35:31.372Z,18.57
2023-03-12T00:36:02.881Z,18.59
2023-03-12T00:36:34.309Z,18.58
2023-03-12T00:37:05.724Z,18.58
2023-03-12T00:37:37.126Z,18.56
2023-03-12T00:38:08.540Z,18.57
2023-03-12T00:38:39.955Z,18.55
2023-03-12T00:39:11.341Z,18.54
2023-03-12T00:39:42.742Z,18.55
2023-03-12T00:40:14.139Z,18.54
2023-03-12T00:40:45.590Z,18.55
2023-03-12T00:41:17.013Z,18.54
2023-03-12T00:41:48.415Z,18.54
2023-03-12T00:42:19.808Z,18.54
2023-03-12T00:42:51.223Z,18.53
2023-03-12T00:43:22.640Z,18.53
2023-03-12T00:43:54.058Z,18.50
2023-03-12T00:44:25.460Z,18.51
2023-03-12T00:44:56.870Z,18.50
2023-03-12T00:45:28.330Z,18.49
2023-03-12T00:45:59.728Z,18.49
2023-03-12T00:46:31.179Z,18.48
2023-03-12T00:47:02.644Z,18.49
2023-03-12T00:47:34.060Z,18.48
2023-03-12T00:48:05.460Z,18.49
2023-03-12T00:48:36.862Z,18.48
2023-03-12T00:49:08.256Z,18.46
2023-03-12T00:49:39.682Z,18.47
2023-03-12T00:50:11.114Z,18.46
2023-03-12T00:50:42.556Z,18.46
2023-03-12T00:51:13.966Z,18.45
2023-03-12T00:51:45.379Z,18.44
2023-03-12T00:52:16.783Z,18.44
2023-03-12T00:52:48.176Z,18.45
2023-03-12T00:53:19.566Z,18.43
2023-03-12T00:53:50.985Z,18.45
2023-03-12T00:54:22.391Z,18.45
2023-03-12T00:54:53.779Z,18.42
2023-03-12T00:55:25.191Z,18.42
2023-03-12T00:55:56.630Z,18.42
2023-03-12T00:56:28.018Z,18.45
2023-03-12T00:56:59.455Z,18.42
2023-03-12T00:57:30.920Z,18.40
2023-03-12T00:58:02.350Z,18.41
2023-03-12T00:58:33.756Z,18.44
2023-03-12T00:59:05.175Z,18.43
2023-03-12T00:59:36.590Z,18.41
2023-03-12T01:00:08.010Z,18.39
2023-03-12T01:00:39.418Z,18.40
2023-03-12T01:01:10.930Z,18.42
2023-03-12T01:01:42.374Z,18.37
2023-03-12T01:02:13.819Z,18.39
2023-03-12T01:02:45.238Z,18.38
2023-03-12T01:03:16.639Z,18.39
2023-03-12T01:03:48.073Z,18.37
2023-03-12T01:04:19.543Z,18.37
2023-03-12T01:04:50.962Z,18.37
2023-03-12T01:05:22.363Z,18.37
2023-03-12T01:05:53.768Z,18.35
2023-03-12T01:06:25.180Z,18.37
2023-03-12T01:06:56.585Z,18.38
2023-03-12T01:07:28.041Z,18.38
2023-03-12T01:07:59.439Z,18.38
2023-03-12T01:08:30.862Z,18.38
2023-03-12T01:09:02.272Z,18.35
2023-03-12T01:09:33.666Z,18.35
2023-03-12T01:10:05.058Z,18.36
2023-03-12T01:10:36.470Z,18.34
2023-03-12T01:11:07.882Z,18.34
2023-03-12T01:11:39.277Z,18.36
2023-03-12T01:12:10.668Z,18.33
2023-03-12T01:12:42.126Z,18.34
2023-03-12T01:13:13.545Z,18.33
2023-03-12T01:13:44.954Z,18.32
2023-03-12T01:14:16.360Z,18.34
2023-03-12T01:14:47.786Z,18.34
2023-03-12T01:15:19.181Z,18.32
2023-03-12T01:15:50.590Z,18.32
2023-03-12T01:16:22.040Z,18.31
2023-03-12T01:16:53.566Z,18.31
2023-03-12T01:17:25.012Z,18.30
2023-03-12T01:17:56.443Z,18.31
2023-03-12T01:18:27.829Z,18.29
2023-03-12T01:18:59.248Z,18.30
2023-03-12T01:19:30.658Z,18.29
2023-03-12T01:20:02.066Z,18.29
2023-03-12T01:20:33.484Z,18.29
2023-03-12T01:21:04.898Z,18.27
2023-03-12T01:21:36.291Z,18.27
2023-03-12T01:22:07.819Z,18.26
2023-03-12T01:22:39.220Z,18.25
2023-03-12T01:23:10.665Z,18.28
2023-03-12T01:23:42.071Z,18.26
2023-03-12T01:24:13.488Z,18.25
2023-03-12T01:24:44.875Z,18.26
2023-03-12T01:25:16.291Z,18.24
2023-03-12T01:25:47.689Z,18.24
2023-03-12T01:26:19.105Z,18.24
2023-03-12T01:26:50.492Z,18.25
2023-03-12T01:27:21.898Z,18.25
2023-03-12T01:27:53.349Z,18.23
2023-03-12T01:28:24.777Z,18.24
2023-03-12T01:28:56.191Z,18.24
2023-03-12T01:29:27.581Z,18.22
2023-03-12T01:29:58.990Z,18.22
2023-03-12T01:30:30.410Z,18.19
2023-03-12T01:31:01.822Z,18.19
2023-03-12T01:31:33.298Z,18.20
2023-03-12T01:32:04.712Z,18.21
2023-03-12T01:32:36.110Z,18.19
2023-03-12T01:33:07.536Z,18.19
2023-03-12T01:33:38.998Z,18.19
2023-03-12T01:34:10.412Z,18.18
2023-03-12T01:34:41.812Z,18.18
2023-03-12T01:35:13.262Z,18.17
2023-03-12T01:35:44.784Z,18.16
2023-03-12T01:36:16.302Z,18.16
2023-03-12T01:36:47.799Z,18.16
2023-03-12T01:37:19.246Z,18.17
2023-03-12T01:37:50.667Z,18.17
2023-03-12T01:38:22.112Z,18.17
2023-03-12T01:38:53.571Z,18.16
2023-03-12T01:39:24.968Z,18.15
2023-03-12T01:39:56.380Z,18.15
2023-03-12T01:40:27.799Z,18.15
2023-03-12T01:40:59.236Z,18.15
2023-03-12T01:41:30.626Z,18.13
2023-03-12T01:42:02.088Z,18.14
2023-03-12T01:42:33.510Z,18.13
2023-03-12T01:43:04.934Z,18.13
2023-03-12T01:43:36.324Z,18.12
2023-03-12T01:44:07.751Z,18.13
2023-03-12T01:44:39.204Z,18.13
2023-03-12T01:45:10.615Z,18.13
2023-03-12T01:45:42.062Z,18.11
2023-03-12T01:46:13.540Z,18.11
2023-03-12T01:46:44.984Z,18.11
2023-03-12T01:47:16.412Z,18.09
2023-03-12T01:47:47.811Z,18.08
2023-03-12T01:48:19.225Z,18.07
2023-03-12T01:48:50.652Z,18.08
2023-03-12T01:49:22.062Z,18.08
2023-03-12T01:49:53.521Z,18.08
2023-03-12T01:50:24.954Z,18.08
2023-03-12T01:50:56.386Z,18.06
2023-03-12T01:51:27.797Z,18.09
2023-03-12T01:51:59.202Z,18.06
2023-03-12T01:52:30.596Z,18.05
2023-03-12T01:53:02.002Z,18.04
2023-03-12T01:53:33.440Z,18.04
2023-03-12T01:54:04.830Z,18.04
2023-03-12T01:54:36.245Z,18.04
2023-03-12T01:55:07.660Z,18.05
2023-03-12T01:55:39.075Z,18.03
2023-03-12T01:56:10.490Z,18.03
2023-03-12T01:56:41.887Z,18.03
2023-03-12T01:57:13.321Z,18.02
2023-03-12T01:57:44.722Z,18.02
2023-03-12T01:58:16.122Z,18.03
2023-03-12T01:58:47.552Z,18.02
2023-03-12T01:59:18.964Z,18.02
2023-03-12T01:59:50.385Z,18.03
2023-03-12T02:00:21.837Z,18.01
2023-03-12T02:00:53.244Z,17.99
2023-03-12T02:01:24.780Z,18.00
2023-03-12T02:01:56.238Z,17.99
2023-03-12T02:02:27.627Z,17.99
2023-03-12T02:02:59.059Z,18.00
2023-03-12T02:03:30.473Z,18.01
2023-03-12T02:04:02.012Z,17.98
2023-03-12T02:04:33.495Z,17.99
2023-03-12T02:05:04.896Z,18.00
2023-03-12T02:05:36.407Z,17.98
2023-03-12T02:06:07.802Z,18.00
2023-03-12T02:06:39.242Z,17.99
2023-03-12T02:07:10.662Z,18.02
2023-03-12T02:07:42.055Z,17.98
2023-03-12T02:08:13.447Z,17.98
2023-03-12T02:08:44.866Z,17.96
2023-03-12T02:09:16.280Z,17.98
2023-03-12T02:09:47.695Z,17.97
2023-03-12T02:10:19.116Z,17.96
2023-03-12T02:10:50.533Z,17.97
2023-03-12T02:11:21.927Z,17.96
2023-03-12T02:11:53.340Z,17.95
2023-03-12T02:12:24.735Z,17.94
2023-03-12T02:12:56.154Z,17.93
2023-03-12T02:13:27.558Z,17.92
2023-03-12T02:13:58.952Z,17.90
2023-03-12T02:14:30.349Z,17.91
2023-03-12T02:15:01.759Z,17.89
2023-03-12T02:15:33.180Z,17.90
2023-03-12T02:16:04.687Z,17.90
2023-03-12T02:16:36.164Z,17.88
2023-03-12T02:17:07.589Z,17.89
2023-03-12T02:17:38.999Z,17.89
2023-03-12T02:18:10.396Z,17.90
2023-03-12T02:18:41.827Z,17.90
2023-03-12T02:19:13.234Z,17.90
2023-03-12T02:19:44.642Z,17.87
2023-03-12T02:20:16.052Z,17.88
2023-03-12T02:20:47.497Z,17.87
2023-03-12T02:21:18.951Z,17.87
2023-03-12T02:21:50.340Z,17.89
2023-03-12T02:22:21.735Z,17.89
2023-03-12T02:22:53.144Z,17.89
2023-03-12T02:23:24.550Z,17.87
2023-03-12T02:23:55.943Z,17.86
2023-03-12T02:24:27.351Z,17.85
2023-03-12T02:24:58.746Z,17.86
2023-03-12T02:25:30.149Z,17.86
2023-03-12T02:26:01.571Z,17.85
2023-03-12T02:26:32.988Z,17.85
2023-03-12T02:27:04.404Z,17.86
2023-03-12T02:27:35.843Z,17.87
2023-03-12T02:28:07.239Z,17.88
2023-03-12T02:28:38.647Z,17.87
2023-03-12T02:29:10.071Z,17.84
2023-03-12T02:29:41.539Z,17.83
2023-03-12T02:30:12.937Z,17.85
2023-03-12T02:30:44.332Z,17.83
2023-03-12T02:31:15.932Z,17.83
2023-03-12T02:31:47.510Z,17.83
2023-03-12T02:32:18.996Z,17.83
2023-03-12T02:32:50.587Z,17.82
2023-03-12T02:33:22.026Z,17.82
2023-03-12T02:33:53.441Z,17.81
2023-03-12T02:34:24.857Z,17.81
2023-03-12T02:34:56.263Z,17.83
2023-03-12T02:35:27.677Z,17.85
2023-03-12T02:35:59.087Z,17.84
2023-03-12T02:36:30.536Z,17.83
2023-03-12T02:37:02.066Z,17.83
2023-03-12T02:37:33.456Z,17.83
2023-03-12T02:38:04.865Z,17.85
2023-03-12T02:38:36.271Z,17.83
2023-03-12T02:39:07.683Z,17.83
2023-03-12T02:39:39.113Z,17.83
2023-03-12T02:40:10.520Z,17.81
2023-03-12T02:40:41.936Z,17.81
2023-03-12T02:41:13.354Z,17.83
2023-03-12T02:41:44.798Z,17.81
2023-03-12T02:42:16.229Z,17.81
2023-03-12T02:42:47.638Z,17.84
2023-03-12T02:43:19.047Z,17.85
2023-03-12T02:43:50.448Z,17.83
2023-03-12T02:44:21.864Z,17.80
2023-03-12T02:44:53.278Z,17.80
2023-03-12T02:45:24.676Z,17.80
2023-03-12T02:45:56.160Z,17.80
2023-03-12T02:46:27.613Z,17.80
2023-03-12T02:46:59.062Z,17.78
2023-03-12T02:47:30.496Z,17.77
2023-03-12T02:48:01.919Z,17.78
2023-03-12T02:48:33.338Z,17.77
2023-03-12T02:49:04.852Z,17.74
2023-03-12T02:49:36.268Z,17.75
2023-03-12T02:50:07.663Z,17.77
2023-03-12T02:50:39.054Z,17.75
2023-03-12T02:51:10.442Z,17.77
2023-03-12T02:51:41.840Z,17.77
2023-03-12T02:52:13.280Z,17.75
2023-03-12T02:52:44.686Z,17.76
2023-03-12T02:53:16.079Z,17.79
2023-03-12T02:53:47.492Z,17.74
2023-03-12T02:54:18.917Z,17.74
2023-03-12T02:54:50.334Z,17.77
2023-03-12T02:55:21.748Z,17.78
2023-03-12T02:55:53.164Z,17.79
2023-03-12T02:56:24.587Z,17.76
2023-03-12T02:56:56.013Z,17.73
2023-03-12T02:57:27.487Z,17.73
2023-03-12T02:57:58.901Z,17.72
2023-03-12T02:58:30.491Z,17.72
2023-03-12T02:59:04.323Z,17.72
2023-03-12T02:59:35.891Z,17.72
2023-03-12T03:00:07.307Z,17.71
2023-03-12T03:00:38.732Z,17.73
2023-03-12T03:01:10.171Z,17.74
2023-03-12T03:01:41.690Z,17.74
2023-03-12T03:02:13.151Z,17.72
2023-03-12T03:02:44.604Z,17.74
2023-03-12T03:03:16.001Z,17.73
2023-03-12T03:03:47.448Z,17.73
2023-03-12T03:04:18.946Z,17.71
2023-03-12T03:04:50.365Z,17.70
2023-03-12T03:05:21.770Z,17.69
2023-03-12T03:05:53.188Z,17.69
2023-03-12T03:06:24.604Z,17.70
2023-03-12T03:06:56.017Z,17.69
2023-03-12T03:07:27.471Z,17.68
2023-03-12T03:07:58.887Z,17.68
2023-03-12T03:08:30.318Z,17.69
2023-03-12T03:09:01.710Z,17.68
2023-03-12T03:09:33.109Z,17.67
2023-03-12T03:10:04.521Z,17.66
2023-03-12T03:10:35.959Z,17.67
2023-03-12T03:11:07.380Z,17.66
2023-03-12T03:11:38.858Z,17.65
2023-03-12T03:12:10.269Z,17.68
2023-03-12T03:12:41.690Z,17.69
2023-03-12T03:13:13.089Z,17.69
2023-03-12T03:13:44.482Z,17.68
2023-03-12T03:14:15.934Z,17.67
2023-03-12T03:14:47.337Z,17.65
2023-03-12T03:15:18.740Z,17.65
2023-03-12T03:15:50.196Z,17.64
2023-03-12T03:16:21.623Z,17.65
2023-03-12T03:16:53.052Z,17.66
2023-03-12T03:17:24.515Z,17.65
2023-03-12T03:17:55.926Z,17.62
2023-03-12T03:18:27.387Z,17.63
2023-03-12T03:18:58.778Z,17.63
2023-03-12T03:19:30.203Z,17.62
2023-03-12T03:20:01.656Z,17.62
2023-03-12T03:20:33.081Z,17.62
2023-03-12T03:21:04.481Z,17.62
2023-03-12T03:21:35.876Z,17.62
2023-03-12T03:22:07.276Z,17.60
2023-03-12T03:22:38.715Z,17.61
2023-03-12T03:23:10.130Z,17.61
2023-03-12T03:23:41.563Z,17.61
2023-03-12T03:24:12.961Z,17.60
2023-03-12T03:24:44.356Z,17.59
2023-03-12T03:25:15.770Z,17.60
2023-03-12T03:25:47.184Z,17.60
2023-03-12T03:26:18.600Z,17.58
2023-03-12T03:26:49.994Z,17.57
2023-03-12T03:27:21.431Z,17.59
2023-03-12T03:27:52.826Z,17.58
2023-03-12T03:28:24.219Z,17.57
2023-03-12T03:28:55.652Z,17.58
2023-03-12T03:29:27.151Z,17.58
2023-03-12T03:29:58.558Z,17.58
2023-03-12T03:30:29.974Z,17.60
2023-03-12T03:31:01.431Z,17.59
2023-03-12T03:31:32.952Z,17.57
2023-03-12T03:32:04.389Z,17.56
2023-03-12T03:32:35.887Z,17.56
2023-03-12T03:33:07.308Z,17.57
2023-03-12T03:33:38.713Z,17.57
2023-03-12T03:34:10.136Z,17.56
2023-03-12T03:34:41.542Z,17.55
2023-03-12T03:35:12.943Z,17.56
2023-03-12T03:35:44.393Z,17.53
2023-03-12T03:36:15.812Z,17.54
2023-03-12T03:36:47.210Z,17.55
2023-03-12T03:37:18.630Z,17.54
2023-03-12T03:37:50.083Z,17.55
2023-03-12T03:38:21.471Z,17.53
2023-03-12T03:38:52.882Z,17.53
2023-03-12T03:39:24.297Z,17.52
2023-03-12T03:39:55.699Z,17.52
2023-03-12T03:40:27.089Z,17.53
2023-03-12T03:40:58.506Z,17.52
2023-03-12T03:41:29.897Z,17.52
2023-03-12T03:42:01.307Z,17.51
2023-03-12T03:42:32.731Z,17.52
2023-03-12T03:43:04.135Z,17.52
2023-03-12T03:43:35.561Z,17.52
2023-03-12T03:44:06.982Z,17.52
2023-03-12T03:44:38.457Z,17.51
2023-03-12T03:45:09.868Z,17.52
2023-03-12T03:45:41.266Z,17.51
2023-03-12T03:46:12.744Z,17.49
2023-03-12T03:46:44.198Z,17.48
2023-03-12T03:47:15.621Z,17.49
2023-03-12T03:47:47.029Z,17.47
2023-03-12T03:48:18.428Z,17.49
2023-03-12T03:48:49.845Z,17.51
2023-03-12T03:49:21.232Z,17.49
2023-03-12T03:49:52.623Z,17.48
2023-03-12T03:50:24.035Z,17.47
2023-03-12T03:50:55.448Z,17.48
2023-03-12T03:51:26.838Z,17.48
2023-03-12T03:51:58.223Z,17.46
2023-03-12T03:52:29.611Z,17.48
2023-03-12T03:53:01.003Z,17.47
2023-03-12T03:53:32.410Z,17.46
2023-03-12T03:54:03.840Z,17.46
2023-03-12T03:54:35.280Z,17.46
2023-03-12T03:55:06.701Z,17.46
2023-03-12T03:55:38.112Z,17.45
2023-03-12T03:56:09.505Z,17.44
2023-03-12T03:56:40.913Z,17.44
2023-03-12T03:57:12.331Z,17.45
2023-03-12T03:57:43.804Z,17.44
2023-03-12T03:58:15.210Z,17.42
2023-03-12T03:58:46.647Z,17.42
2023-03-12T03:59:18.049Z,17.43
2023-03-12T03:59:49.489Z,17.43
2023-03-12T04:00:20.920Z,17.42
2023-03-12T04:00:52.317Z,17.42
2023-03-12T04:01:23.719Z,17.45
2023-03-12T04:01:55.138Z,17.44
2023-03-12T04:02:26.542Z,17.46
2023-03-12T04:02:57.996Z,17.43
2023-03-12T04:03:29.461Z,17.44
2023-03-12T04:04:00.902Z,17.44
2023-03-12T04:04:32.316Z,17.42
2023-03-12T04:05:03.737Z,17.42
2023-03-12T04:05:35.204Z,17.42
2023-03-12T04:06:06.636Z,17.42
2023-03-12T04:06:38.082Z,17.42
2023-03-12T04:07:09.506Z,17.43
2023-03-12T04:07:40.916Z,17.42
2023-03-12T04:08:12.339Z,17.41
2023-03-12T04:08:43.773Z,17.40
2023-03-12T04:09:15.194Z,17.41
2023-03-12T04:09:46.628Z,17.40
2023-03-12T04:10:18.069Z,17.39
2023-03-12T04:10:49.474Z,17.38
2023-03-12T04:11:20.883Z,17.38
2023-03-12T04:11:52.319Z,17.36
2023-03-12T04:12:23.734Z,17.38
2023-03-12T04:12:55.175Z,17.40
2023-03-12T04:13:26.582Z,17.39
2023-03-12T04:13:57.979Z,17.37
2023-03-12T04:14:29.386Z,17.40
2023-03-12T04:15:00.783Z,17.40
2023-03-12T04:15:32.232Z,17.40
2023-03-12T04:16:03.814Z,17.36
2023-03-12T04:16:35.303Z,17.34
2023-03-12T04:17:06.696Z,17.37
2023-03-12T04:17:38.091Z,17.37
2023-03-12T04:18:09.624Z,17.37
2023-03-12T04:18:41.144Z,17.36
2023-03-12T04:19:12.539Z,17.35
2023-03-12T04:19:43.945Z,17.36
2023-03-12T04:20:15.335Z,17.37
2023-03-12T04:20:46.770Z,17.34
2023-03-12T04:21:18.196Z,17.36
2023-03-12T04:21:49.594Z,17.36
2023-03-12T04:22:21.048Z,17.34
2023-03-12T04:22:52.474Z,17.32
2023-03-12T04:23:23.903Z,17.34
2023-03-12T04:23:55.305Z,17.36
2023-03-12T04:24:26.733Z,17.34
2023-03-12T04:24:58.128Z,17.32
2023-03-12T04:25:29.547Z,17.34
2023-03-12T04:26:00.990Z,17.31
2023-03-12T04:26:32.439Z,17.32
2023-03-12T04:27:03.881Z,17.34
2023-03-12T04:27:35.322Z,17.33
2023-03-12T04:28:06.771Z,17.32
2023-03-12T04:28:38.246Z,17.31
2023-03-12T04:29:09.638Z,17.30
2023-03-12T04:29:41.027Z,17.30
2023-03-12T04:30:12.449Z,17.30
2023-03-12T04:30:43.884Z,17.30
2023-03-12T04:31:15.379Z,17.29
2023-03-12T04:31:46.866Z,17.27
2023-03-12T04:32:18.338Z,17.27
2023-03-12T04:32:49.836Z,17.29
2023-03-12T04:33:21.268Z,17.28
2023-03-12T04:33:52.682Z,17.29
2023-03-12T04:34:24.067Z,17.29
2023-03-12T04:34:55.485Z,17.29
2023-03-12T04:35:26.906Z,17.29
2023-03-12T04:35:58.356Z,17.30
2023-03-12T04:36:29.792Z,17.30
2023-03-12T04:37:01.236Z,17.30
2023-03-12T04:37:32.637Z,17.30
2023-03-12T04:38:04.090Z,17.30
2023-03-12T04:38:35.525Z,17.29
2023-03-12T04:39:06.947Z,17.27
2023-03-12T04:39:38.365Z,17.28
2023-03-12T04:40:09.789Z,17.29
2023-03-12T04:40:41.204Z,17.26
2023-03-12T04:41:12.601Z,17.26
2023-03-12T04:41:44.032Z,17.27
2023-03-12T04:42:15.418Z,17.26
2023-03-12T04:42:46.834Z,17.24
2023-03-12T04:43:18.248Z,17.27
2023-03-12T04:43:49.642Z,17.26
2023-03-12T04:44:21.051Z,17.28
2023-03-12T04:44:52.474Z,17.25
2023-03-12T04:45:23.905Z,17.25
2023-03-12T04:45:55.314Z,17.26
2023-03-12T04:46:26.731Z,17.24
2023-03-12T04:46:58.257Z,17.26
2023-03-12T04:47:29.720Z,17.25
2023-03-12T04:48:01.142Z,17.25
2023-03-12T04:48:32.579Z,17.23
2023-03-12T04:49:03.980Z,17.24
2023-03-12T04:49:35.399Z,17.24
2023-03-12T04:50:06.792Z,17.22
2023-03-12T04:50:38.199Z,17.24
2023-03-12T04:51:09.605Z,17.23
2023-03-12T04:51:41.028Z,17.23
2023-03-12T04:52:12.491Z,17.21
2023-03-12T04:52:43.969Z,17.21
2023-03-12T04:53:15.437Z,17.21
2023-03-12T04:53:46.939Z,17.22
2023-03-12T04:54:18.372Z,17.23
2023-03-12T04:54:49.762Z,17.21
2023-03-12T04:55:21.173Z,17.19
2023-03-12T04:55:52.568Z,17.20
2023-03-12T04:56:23.987Z,17.19
2023-03-12T04:56:55.391Z,17.20
2023-03-12T04:57:26.855Z,17.18
2023-03-12T04:57:58.285Z,17.20
2023-03-12T04:58:29.758Z,17.21
2023-03-12T04:59:01.165Z,17.20
2023-03-12T04:59:32.559Z,17.19
2023-03-12T05:00:03.969Z,17.20
2023-03-12T05:00:35.385Z,17.20
2023-03-12T05:01:06.794Z,17.22
2023-03-12T05:01:38.205Z,17.21
2023-03-12T05:02:09.595Z,17.17
2023-03-12T05:02:41.094Z,17.19
2023-03-12T05:03:12.597Z,17.19
2023-03-12T05:03:44.095Z,17.18
2023-03-12T05:04:15.582Z,17.17
2023-03-12T05:04:47.054Z,17.17
2023-03-12T05:05:18.458Z,17.16
2023-03-12T05:05:49.898Z,17.16
2023-03-12T05:06:21.307Z,17.16
2023-03-12T05:06:52.719Z,17.15
2023-03-12T05:07:24.128Z,17.16
2023-03-12T05:07:55.564Z,17.18
2023-03-12T05:08:26.990Z,17.17
2023-03-12T05:08:58.378Z,17.17
2023-03-12T05:09:29.786Z,17.17
2023-03-12T05:10:01.197Z,17.18
2023-03-12T05:10:32.603Z,17.17
2023-03-12T05:11:04.026Z,17.16
2023-03-12T05:11:35.463Z,17.17
2023-03-12T05:12:06.881Z,17.16
2023-03-12T05:12:38.287Z,17.17
2023-03-12T05:13:09.718Z,17.17
2023-03-12T05:13:41.135Z,17.16
2023-03-12T05:14:12.531Z,17.15
2023-03-12T05:14:43.949Z,17.15
2023-03-12T05:15:15.366Z,17.16
2023-03-12T05:15:46.760Z,17.16
2023-03-12T05:16:18.210Z,17.14
2023-03-12T05:16:49.652Z,17.15
2023-03-12T05:17:21.059Z,17.15
2023-03-12T05:17:53.800Z,17.13
2023-03-12T05:18:26.122Z,17.15
2023-03-12T05:18:57.533Z,17.14
2023-03-12T05:19:28.883Z,17.13
2023-03-12T05:20:00.295Z,17.13
2023-03-12T05:20:31.705Z,17.13
2023-03-12T05:21:03.100Z,17.14
2023-03-12T05:21:34.521Z,17.14
2023-03-12T05:22:05.915Z,17.13
2023-03-12T05:22:37.316Z,17.15
2023-03-12T05:23:08.736Z,17.14
2023-03-12T05:23:40.210Z,17.12
2023-03-12T05:24:11.624Z,17.12
2023-03-12T05:24:43.023Z,17.11
2023-03-12T05:25:14.442Z,17.12
2023-03-12T05:25:45.872Z,17.12
2023-03-12T05:26:17.271Z,17.12
2023-03-12T05:26:48.697Z,17.13
2023-03-12T05:27:20.097Z,17.12
2023-03-12T05:27:51.514Z,17.11
2023-03-12T05:28:22.949Z,17.12
2023-03-12T05:28:54.362Z,17.11
2023-03-12T05:29:25.807Z,17.09
2023-03-12T05:29:57.227Z,17.09
2023-03-12T05:30:28.641Z,17.11
2023-03-12T05:31:00.034Z,17.10
2023-03-12T05:31:31.484Z,17.10
2023-03-12T05:32:02.910Z,17.10
2023-03-12T05:32:34.372Z,17.08
2023-03-12T05:33:05.816Z,17.09
2023-03-12T05:33:37.253Z,17.09
2023-03-12T05:34:08.642Z,17.11
2023-03-12T05:34:40.044Z,17.11
2023-03-12T05:35:11.440Z,17.11
2023-03-12T05:35:42.875Z,17.11
2023-03-12T05:36:14.389Z,17.09
2023-03-12T05:36:45.824Z,17.11
2023-03-12T05:37:17.263Z,17.10
2023-03-12T05:37:48.697Z,17.10
2023-03-12T05:38:20.090Z,17.10
2023-03-12T05:38:51.520Z,17.09
2023-03-12T05:39:22.932Z,17.09
2023-03-12T05:39:54.300Z,17.10
2023-03-12T05:40:25.703Z,17.12
2023-03-12T05:40:57.112Z,17.12
2023-03-12T05:41:28.530Z,17.12
2023-03-12T05:41:59.934Z,17.12
2023-03-12T05:42:31.397Z,17.12
2023-03-12T05:43:02.816Z,17.12
2023-03-12T05:43:34.278Z,17.12
2023-03-12T05:44:05.692Z,17.14
2023-03-12T05:44:37.113Z,17.14
2023-03-12T05:45:08.512Z,17.13
2023-03-12T05:45:39.937Z,17.13
2023-03-12T05:46:11.432Z,17.13
2023-03-12T05:46:42.888Z,17.14
2023-03-12T05:47:14.322Z,17.14
2023-03-12T05:47:45.729Z,17.16
2023-03-12T05:48:17.138Z,17.15
2023-03-12T05:48:48.579Z,17.15
2023-03-12T05:49:19.974Z,17.16
2023-03-12T05:49:51.363Z,17.16
2023-03-12T05:50:22.764Z,17.16
2023-03-12T05:50:54.167Z,17.16
2023-03-12T05:51:25.562Z,17.17
2023-03-12T05:51:56.968Z,17.17
2023-03-12T05:52:28.370Z,17.16
2023-03-12T05:52:59.771Z,17.17
2023-03-12T05:53:31.198Z,17.18
2023-03-12T05:54:02.642Z,17.17
2023-03-12T05:54:34.066Z,17.18
2023-03-12T05:55:05.468Z,17.19
2023-03-12T05:55:36.862Z,17.17
2023-03-12T05:56:08.259Z,17.19
2023-03-12T05:56:39.658Z,17.20
2023-03-12T05:57:11.082Z,17.20
2023-03-12T05:57:42.498Z,17.19
2023-03-12T05:58:13.911Z,17.20
2023-03-12T05:58:45.329Z,17.19
2023-03-12T05:59:16.751Z,17.19
2023-03-12T05:59:48.171Z,17.21
2023-03-12T06:00:19.592Z,17.21
2023-03-12T06:00:50.980Z,17.21
2023-03-12T06:01:22.380Z,17.20
2023-03-12T06:01:53.832Z,17.22
2023-03-12T06:02:25.312Z,17.21
2023-03-12T06:02:56.780Z,17.22
2023-03-12T06:03:28.253Z,17.22
2023-03-12T06:03:59.702Z,17.23
2023-03-12T06:04:31.118Z,17.22
2023-03-12T06:05:02.532Z,17.23
2023-03-12T06:05:33.948Z,17.23
2023-03-12T06:06:05.358Z,17.24
2023-03-12T06:06:36.747Z,17.24
2023-03-12T06:07:08.156Z,17.24
2023-03-12T06:07:39.596Z,17.24
2023-03-12T06:08:11.002Z,17.23
2023-03-12T06:08:42.405Z,17.24
2023-03-12T06:09:13.830Z,17.24
2023-03-12T06:09:45.243Z,17.25
2023-03-12T06:10:16.648Z,17.24
2023-03-12T06:10:48.095Z,17.25
2023-03-12T06:11:19.493Z,17.24
2023-03-12T06:11:50.920Z,17.24
2023-03-12T06:12:22.347Z,17.24
2023-03-12T06:12:53.763Z,17.25
2023-03-12T06:13:25.160Z,17.25
2023-03-12T06:13:56.567Z,17.25
2023-03-12T06:14:28.027Z,17.25
2023-03-12T06:14:59.440Z,17.26
2023-03-12T06:15:30.855Z,17.25
2023-03-12T06:16:02.274Z,17.25
2023-03-12T06:16:33.697Z,17.26
2023-03-12T06:17:05.107Z,17.27
2023-03-12T06:17:36.514Z,17.26
2023-03-12T06:18:07.950Z,17.26
2023-03-12T06:18:39.362Z,17.26
2023-03-12T06:19:10.761Z,17.26
2023-03-12T06:19:42.155Z,17.27
2023-03-12T06:20:13.554Z,17.28
2023-03-12T06:20:44.952Z,17.27
2023-03-12T06:21:16.370Z,17.27
2023-03-12T06:21:47.766Z,17.28
2023-03-12T06:22:19.166Z,17.29
2023-03-12T06:22:50.588Z,17.28
2023-03-12T06:23:22.011Z,17.28
2023-03-12T06:23:53.423Z,17.28
2023-03-12T06:24:24.816Z,17.28
2023-03-12T06:24:56.234Z,17.27
2023-03-12T06:25:27.642Z,17.28
2023-03-12T06:25:59.057Z,17.28
2023-03-12T06:26:30.476Z,17.29
2023-03-12T06:27:01.893Z,17.29
2023-03-12T06:27:33.287Z,17.29
2023-03-12T06:28:04.716Z,17.29
2023-03-12T06:28:36.179Z,17.29
2023-03-12T06:29:07.635Z,17.28
2023-03-12T06:29:39.083Z,17.29
2023-03-12T06:30:10.533Z,17.29
2023-03-12T06:30:41.960Z,17.30
2023-03-12T06:31:13.390Z,17.30
2023-03-12T06:31:44.898Z,17.30
2023-03-12T06:32:16.426Z,17.30
2023-03-12T06:32:47.925Z,17.30
2023-03-12T06:33:19.344Z,17.31
2023-03-12T06:33:50.735Z,17.32
2023-03-12T06:34:22.147Z,17.31
2023-03-12T06:34:53.554Z,17.31
2023-03-12T06:35:25.080Z,17.30
2023-03-12T06:35:56.579Z,17.30
2023-03-12T06:36:28.013Z,17.31
2023-03-12T06:36:59.408Z,17.31
2023-03-12T06:37:30.803Z,17.31
2023-03-12T06:38:02.217Z,17.32
2023-03-12T06:38:33.622Z,17.32
2023-03-12T06:39:05.005Z,17.31
2023-03-12T06:39:36.410Z,17.31
2023-03-12T06:40:07.802Z,17.32
2023-03-12T06:40:39.256Z,17.32
2023-03-12T06:41:10.655Z,17.31
2023-03-12T06:41:42.070Z,17.33
2023-03-12T06:42:13.463Z,17.32
2023-03-12T06:42:44.866Z,17.32
2023-03-12T06:43:16.297Z,17.33
2023-03-12T06:43:47.706Z,17.33
2023-03-12T06:44:19.111Z,17.33
2023-03-12T06:44:50.506Z,17.33